Etusivu
METAR-TAF:

METAR-TAF

Lentoasemat :

Victorian putoukset, Zimbabwe

Leveyspiiri: 18-06S, Pituuspiiri: 025-51E, korkeus merenpinnasta: 1061 m

Tämänhetkinen sää

Tämä raportti tehtiin 4 tuntia ja 59 minuuttia sitten, kello 07.00 UTC
Tuuli 8 kn idästä/koillisesta
Lämpötila 20°C
Kosteus 30%
Ilmanpaine 1024 hPa
Näkyvyys 10 km tai enemmän
ei pilviä alle 1500 m:ssä eikä cumulonimbus-pilviä

METAR: FVFA 130700Z 06008KT CAVOK 20/02 Q1024 NOSIG

Aika: 13:59 (11:59 UTC)


TAF: puuttuu

Säähavainnot ja -ennusteet yli 4000 lentoasemalta (METAR- ja TAF-raportit).

Käytössä olevat sääasemat on merkitty karttaan keltaisilla ja punaisilla pisteillä.

Aseta hiiri pisteen päälle nähdäksesi sääaseman nimen.

Klikkaa sitten nähdäksesi säähavainnot ja -ennusteet.

Kartan vaihtaminen: klikkaa mustalla rastilla varustettuja vihreitä pisteitä, niin voit zoomata sisään; viivalla varustettua vihreää pistettä, niin voit zoomata ulos tai vihreitä nuolia, niin pääset viereisille kartoille.


METAR-TAF: